Tiempo atmosférico en la estación meteorológica de Carrión De Los Condes, Palencia (830 m.)

Fecha
DESCASC
Temp. máxima en grados centígrados (hora)
DESCASC
Temp. mínima en grados centígrados (hora)
DESCASC
Temp. media en grados centígrados
DESCASC
Racha de viento máxima en m/sg (hora)
DESCASC
Velocidad máxima media en intervalos de 10 minutos(hora)
DESCASC
Precipitaciones diarias en mm
DESCASC
Precipitaciones de 00:00 a 06:00 en mm
DESCASC
Precipitaciones de 06:00 a 12:00 en mm
DESCASC
Precipitaciones de 12:00 a 18:00 en mm
DESCASC
Precipitaciones de 18:00 a 24:00 en mm
DESCASC
17-09-2017 19.7 (16:50) 0.9 (08:00) 10.3 8.89 (14:30) 3.33 (15:50) 0 0 0 0 0
16-09-2017 17.6 (17:50) -0.4 (07:50) 8.6 7.22 (15:30) 2.22 (15:10) 0 0 0 0 0
15-09-2017 17.9 (15:50) 2.6 (08:10) 10.2 9.17 (20:00) 3.89 (20:00) 0 0 0 0 0
14-09-2017 20.7 (16:10) 7.6 (00:00) 14.2 12.78 (22:10) 4.72 (21:40) 0 0 0 0 0
13-09-2017 27.8 (17:20) 7.6 (00:00) 17.7 8.33 (14:10) 3.61 (13:10) 0 0 0 0 0
12-09-2017 24.5 (17:50) 9.4 (00:00) 16.9 6.94 (12:10) 2.78 (18:00) 0 0 0 0 0
11-09-2017 26.1 (16:20) 12.2 (00:00) 19.2 9.44 (15:10) 2.5 (13:50) 0 0 0 0 0
10-09-2017 23.9 (18:00) 5.6 (00:00) 14.7 7.78 (10:50) 3.33 (10:50) 0 0 0 0 0
09-09-2017 20.8 (15:50) 10.6 (00:00) 15.7 13.89 (19:20) 5.83 (17:50) 0 0 0 0 0
08-09-2017 27.7 (17:50) 8.5 (00:00) 18.1 8.61 (16:30) 3.06 (16:30) 0 0 0 0 0
07-09-2017 26.4 (18:00) 7.1 (00:00) 16.7 7.22 (00:50) 2.5 (22:20) 0 0 0 0 0
06-09-2017 23.7 (16:20) 11.4 (00:00) 17.6 10.83 (17:40) 4.17 (16:50) 0 0 0 0 0
05-09-2017 30.5 (16:10) 12 (00:00) 21.3 8.89 (20:30) 3.89 (19:30) 0 0 0 0 0
04-09-2017 27.2 (18:00) 11.4 (00:00) 19.3 6.11 (17:50) 2.22 (02:50) 0 0 0 0 0
03-09-2017 27.8 (15:10) 10.5 (00:00) 19.1 8.06 (15:10) 3.61 (16:10) 0 0 0 0 0
02-09-2017 24 (17:10) 4.2 (00:00) 14.1 5.28 (11:00) 2.5 (10:20) 0 0 0 0 0
01-09-2017 22.5 (17:50) 9.1 (00:00) 15.8 8.89 (19:20) 3.61 (19:00) 0 0 0 0 0
31-08-2017 22.2 (17:30) 10.2 (00:00) 16.2 10 (20:50) 3.89 (21:20) 0 0 0 0 0
30-08-2017 24.8 (14:40) 13.6 (00:00) 19.2 9.72 (13:40) 4.44 (13:40) 3.2 0 0 0.8 2.4
29-08-2017 26 (18:10) 11.7 (00:00) 18.8 9.44 (20:50) 3.89 (22:00) 0.6 0 0 0 0.6
28-08-2017 22.6 (13:10) 15 (00:00) 18.8 11.11 (15:30) 4.44 (15:40) 3.2 3 0 0 0.2
27-08-2017 21.2 (16:30) 15.5 (00:00) 18.4 15.83 (07:00) 6.94 (07:00) 12.4 0 8.8 3.6 0
26-08-2017 28.7 (18:20) 8.6 (00:00) 18.7 13.89 (19:50) 5 (19:40) 0 0 0 0 0
25-08-2017 29.5 (15:40) 11.4 (00:00) 20.4 8.06 (15:40) 3.33 (14:50) 0 0 0 0 0
24-08-2017 31.6 (15:20) 15.6 (00:00) 23.6 11.39 (18:00) 4.72 (16:00) 0 0 0 0 0
23-08-2017 33.9 (17:40) 12.9 (00:00) 23.4 8.61 (21:40) 2.78 (21:40) 0 0 0 0 0
22-08-2017 34.6 (16:10) 14.5 (00:00) 24.5 10.83 (15:20) 3.61 (14:50) 0 0 0 0 0

Gráficas

Temp. máximas Temp. mínimas Temp. medias Precipitaciones Rachas de viento máximas Velocidades máximas media en intervalos de 10 minutos

Datos horarios

Fecha y hora oficial Temperatura (ºC) Velocidad del viento (km/h) Dirección del viento Racha (km/h) Dirección de racha Precipitación (mm) Presión (hPa) Tendencia (hPa) Humedad (%)
2017-09-20 23:00:00 9.8 0 Calma 3 Norte 0 923.7 -0.1 77
2017-09-20 22:00:00 11.4 0 Calma 3 Norte 0 923.8 0 73
2017-09-20 21:00:00 13.9 0 Calma 2 Nordeste 0 923.6 -0.1 67
2017-09-20 20:00:00 17.4 0 Calma 14 Sudoeste 0 923.8 -0.6 58
2017-09-20 19:00:00 23 5 Sudoeste 17 Sudoeste 0 923.8 -1.2 26
2017-09-20 18:00:00 25.2 3 Sudoeste 17 Sur 0 923.7 -1.9 22
2017-09-20 17:00:00 25.7 5 Sudoeste 22 Sur 0 924.4 -1.9 22
2017-09-20 16:00:00 25.2 4 Sudoeste 20 Norte 0 925 -1.9 22
2017-09-20 15:00:00 24.4 7 Sudoeste 23 Sudoeste 0 925.6 -1.8 24
2017-09-20 14:00:00 23.3 7 Sudoeste 19 Sudoeste 0 926.3 -1.5 26
2017-09-20 13:00:00 21.1 3 Oeste 9 Oeste 0 926.9 -0.9 29
2017-09-20 12:00:00 19.1 3 Este 9 Este 0 927.4 -0.4 34
2017-09-20 11:00:00 15.3 3 Este 9 Norte 0 927.8 0.2 47
2017-09-20 10:00:00 9.9 0 Calma 12 Sudoeste 0 927.8 0.2 78
2017-09-20 09:00:00 4 0 Calma 3 Norte 0 927.8 -0.1 95
2017-09-20 08:00:00 3.2 0 Calma 3 Norte 0 927.6 -0.6 94
2017-09-20 07:00:00 3.9 0 Calma 3 Oeste 0 927.6 -0.9 93
2017-09-20 06:00:00 4.9 0 Calma 2 Noroeste 0 927.9 -0.9 91
2017-09-20 05:00:00 6.1 3 Norte 7 Norte 0 928.2 -0.6 82
2017-09-20 04:00:00 8.5 3 Norte 14 Norte 0 928.5 -0.5 72
2017-09-20 03:00:00 8.3 4 Norte 11 Norte 0 928.8 -0.3 73
2017-09-20 02:00:00 9.4 4 Norte 12 Nordeste 0 928.8 -0.3 67
2017-09-20 01:00:00 10.5 4 Norte 15 Este 0 929 -0.1 59
2017-09-20 00:00:00 11.5 5 Nordeste 17 Nordeste 0 929.1 0.5 51
2017-09-19 23:00:00 11.2 5 Nordeste 13 Norte 0 929.1 0.7 50
2017-09-19 22:00:00 10 3 Nordeste 9 Sudeste 0 929.1 0.7 70
2017-09-19 21:00:00 12.2 0 Calma 3 Nordeste 0 928.6 0.2 72
2017-09-19 20:00:00 15.6 0 Calma 3 Norte 0 928.4 -0.2 65
2017-09-19 19:00:00 18.7 3 Sudoeste 8 Este 0 928.4 -0.7 39
2017-09-19 18:00:00 21.2 3 Norte 12 Este 0 928.4 -1.2 32
2017-09-19 17:00:00 21.3 3 Noroeste 13 Norte 0 928.6 -1.6 32
2017-09-19 16:00:00 20.9 3 Sudeste 14 Noroeste 0 929.1 -1.4 32
2017-09-19 15:00:00 19.1 6 Norte 18 Norte 0 929.6 -1.2 39
2017-09-19 14:00:00 18.2 4 Este 15 Noroeste 0 930.2 -0.6 46
2017-09-19 13:00:00 17.1 4 Sudoeste 11 Este 0 930.5 0 52
2017-09-19 12:00:00 14.7 3 Sudeste 13 Este 0 930.8 0.7 61
2017-09-19 11:00:00 13.2 5 Este 50 Noroeste 0 930.8 0.8 72
2017-09-19 10:00:00 9.2 2 Noroeste 16 Noroeste 0 930.5 0.9 97
2017-09-19 09:00:00 4.3 0 Calma 3 Oeste 0 930.1 0.7 96
2017-09-19 08:00:00 3.3 2 Oeste 3 Oeste 0 930 0.7 96
2017-09-19 07:00:00 4.2 0 Calma 5 Oeste 0 929.6 0.3 96
2017-09-19 06:00:00 5 2 Noroeste 4 Noroeste 0 929.4 0 95
2017-09-19 05:00:00 5.7 2 Norte 4 Noroeste 0 929.3 0.1 95
2017-09-19 04:00:00 5.9 0 Calma 4 Nordeste 0 929.3 0.3 94
2017-09-19 03:00:00 6.8 2 Norte 5 Nordeste 0 929.4 0.5 94
2017-09-19 02:00:00 7.4 4 Nordeste 6 Norte 0 929.2 0.7 92
2017-09-19 01:00:00 8.7 2 Norte 4 Norte 0 929 0.9 90
2017-09-19 00:00:00 10.6 2 Norte 10 Nordeste 0 928.9 1.9 80
2017-09-18 23:00:00 12.8 4 Nordeste 12 Norte 0 928.5 2.1 68
2017-09-18 22:00:00 14.1 5 Norte 19 Norte 0 928.1 2.4 61
2017-09-18 21:00:00 15.9 9 Noroeste 18 Noroeste 0 927 1.3 54
2017-09-18 20:00:00 17.6 10 Noroeste 26 Norte 0 926.4 1.2 48
2017-09-18 19:00:00 18.7 11 Noroeste 23 Norte 0 925.7 0.3 41
2017-09-18 18:00:00 18.5 11 Noroeste 28 Norte 0 925.7 0.3 47
2017-09-18 17:00:00 20 4 Sur 19 Sudoeste 0 925.2 -0.2 43
2017-09-18 16:00:00 19.9 5 Sudoeste 18 Sudoeste 0 925.4 -0.1 44
2017-09-18 15:00:00 19.5 3 Sur 24 Noroeste 0 925.4 -0.1 45
2017-09-18 14:00:00 19.4 5 Oeste 19 Sur 0 925.4 0.4 47
2017-09-18 13:00:00 17.4 3 Noroeste 23 Sudoeste 0 925.5 0.9 57
2017-09-18 12:00:00 15 6 Sudoeste 20 Sur 0 925.5 1.1 69
2017-09-18 11:00:00 13.6 5 Sudoeste 18 Oeste 0 925 1 75
2017-09-18 10:00:00 11.9 3 Sur 10 Oeste 0 924.6 0.9 90
2017-09-18 09:00:00 8.7 0 Calma 7 Noroeste 0 924.4 0.9 96
2017-09-18 08:00:00 7.9 3 Sudoeste 6 Sudoeste 0 924 0.7 95
2017-09-18 07:00:00 7.9 0 Calma 8 Oeste 0 923.7 0 94
2017-09-18 06:00:00 8.9 0 Calma 5 Noroeste 0.2 923.5 -0.1 93
2017-09-18 05:00:00 10.1 4 Sudoeste 9 Sudeste 0.6 923.3 -0.4 93
2017-09-18 04:00:00 10.3 2 Sudoeste 7 Noroeste 0 923.7 -0.3 83
2017-09-18 03:00:00 10.6 2 Norte 8 Noroeste 0 923.6 -0.6 76
2017-09-18 02:00:00 10.8 4 Nordeste 13 Nordeste 0 923.7 -0.3 74
2017-09-18 01:00:00 10.7 6 Nordeste 14 Norte 0 924 0.2 73
2017-09-18 00:00:00 8.9 5 Nordeste 12 Norte 0 924.2 0.9 70
2017-09-17 23:00:00 8 3 Noroeste 9 Oeste 0 924 1 79
2017-09-17 22:00:00 9.5 0 Calma 2 Norte 0 923.8 0.9 71
2017-09-17 21:00:00 12.7 0 Calma 21 Sudoeste 0 923.3 0.3 57
2017-09-17 20:00:00 16.3 11 Sudoeste 23 Sur 0 923 -0.1 34
2017-09-17 19:00:00 17.5 6 Sudoeste 23 Sudoeste 0 922.9 -0.6 32
2017-09-17 18:00:00 18.4 3 Oeste 30 Sur 0 923 -0.9 30
2017-09-17 17:00:00 19.3 9 Sudoeste 25 Oeste 0 923.1 -1.1 28
2017-09-17 16:00:00 18.2 10 Sudoeste 30 Sur 0 923.5 -0.9 30
2017-09-17 15:00:00 17.4 6 Sudoeste 32 Sur 0 923.9 -0.8 31
2017-09-17 14:00:00 17 9 Sudoeste 29 Sur 0 924.2 -0.7 33
2017-09-17 13:00:00 16.1 11 Sudoeste 31 Sur 0 924.4 -0.2 36
2017-09-17 12:00:00 14.6 8 Sudoeste 21 Sudoeste 0 924.7 0.1 43
2017-09-17 11:00:00 12.3 4 Sudoeste 14 Sudoeste 0 924.9 1.1 58
2017-09-17 10:00:00 7.9 4 Sur 8 Sudoeste 0 924.6 1 81
2017-09-17 09:00:00 2.1 0 Calma 4 Sur 0 924.6 1.2 97
2017-09-17 08:00:00 1 0 Calma 4 Noroeste 0 923.8 0.4 96
2017-09-17 07:00:00 1.4 2 Noroeste 6 Noroeste 0 923.6 0.3 95
2017-09-17 06:00:00 1.9 0 Calma 3 Noroeste 0 923.4 -0.3 95
2017-09-17 05:00:00 2.8 2 Noroeste 5 Noroeste 0 923.4 -0.3 94
2017-09-17 04:00:00 3.5 2 Noroeste 5 Noroeste 0 923.3 -0.6 95
2017-09-17 03:00:00 3.3 0 Calma 3 Norte 0 923.7 -0.1 93
2017-09-17 02:00:00 4.1 2 Oeste 5 Noroeste 0 923.7 0.4 91
2017-09-17 01:00:00 5.1 2 Norte 4 Norte 0 923.9 1 84
2017-09-17 00:00:00 7 0 Calma 10 Nordeste 0 923.8 1.6 76
2017-09-16 23:00:00 8.6 3 Norte 15 Noroeste 0 923.3 1.7 72
2017-09-16 22:00:00 10.6 8 Nordeste 21 Norte 0 922.9 1.6 64
2017-09-16 21:00:00 12.3 4 Nordeste 16 Nordeste 0 922.2 0.9 53
2017-09-16 20:00:00 12.9 2 Norte 10 Noroeste 0 921.6 0.3 58
2017-09-16 19:00:00 15.3 5 Noroeste 14 Noroeste 0 921.3 0 33
2017-09-16 18:00:00 16.4 3 Sudeste 13 Noroeste 0 921.3 -0.4 30
2017-09-16 17:00:00 16.2 3 Norte 15 Norte 0 921.3 -1.1 34
2017-09-16 16:00:00 16.4 6 Noroeste 26 Noroeste 0 921.3 -1.5 32
2017-09-16 15:00:00 16.3 7 Noroeste 19 Noroeste 0 921.7 -1.3 33
2017-09-16 14:00:00 15.9 7 Noroeste 19 Norte 0 922.4 -0.8 38
2017-09-16 13:00:00 15 3 Sudoeste 15 Sur 0 922.8 -0.1 40
2017-09-16 12:00:00 13.3 6 Norte 15 Oeste 0 923 0.2 47
2017-09-16 11:00:00 11.6 4 Oeste 16 Sur 0 923.2 0.9 55
2017-09-16 10:00:00 7.7 6 Sudoeste 13 Sudoeste 0 922.9 0.8 81
2017-09-16 09:00:00 1.2 0 Calma 3 Oeste 0 922.8 0.5 97
2017-09-16 08:00:00 -0.4 0 Calma 2 Oeste 0 922.3 -0.1 96
2017-09-16 07:00:00 0.3 0 Calma 4 Sudoeste 0 922.1 -0.4 96
2017-09-16 06:00:00 1.1 2 Noroeste 5 Noroeste 0 922.3 -0.7 96
2017-09-16 05:00:00 1 0 Calma 5 Noroeste 0 922.4 -0.6 95
2017-09-16 04:00:00 1.6 2 Noroeste 4 Noroeste 0 922.5 -1 94
2017-09-16 03:00:00 2.4 0 Calma 4 Norte 0 923 -0.5 94
2017-09-16 02:00:00 2.8 0 Calma 5 Noroeste 0 923 -0.4 91
2017-09-16 01:00:00 4.1 2 Noroeste 4 Norte 0 923.5 0.1 84
2017-09-16 00:00:00 5.9 0 Calma 8 Nordeste 0 923.5 0.7 77
2017-09-15 23:00:00 8 4 Nordeste 9 Este 0 923.4 0.9 65
2017-09-15 22:00:00 9.4 5 Nordeste 14 Nordeste 0 923.4 1.5 59
2017-09-15 21:00:00 10.8 5 Nordeste 32 Nordeste 0 922.8 1 56
2017-09-15 20:00:00 12.8 14 Norte 33 Nordeste 0 922.5 0.7 52
2017-09-15 19:00:00 14.2 6 Nordeste 21 Norte 0 921.9 0 46
2017-09-15 18:00:00 14.5 10 Nordeste 31 Nordeste 0 921.8 -0.6 45
2017-09-15 17:00:00 16.5 7 Norte 16 Norte 0 921.8 -1.1 37
2017-09-15 16:00:00 17.8 5 Norte 17 Noroeste 0 921.9 -1.3 33
2017-09-15 15:00:00 16.1 4 Noroeste 21 Nordeste 0 922.4 -1.5 37
2017-09-15 14:00:00 16 8 Norte 18 Norte 0 922.9 -1.3 38
2017-09-15 13:00:00 15.2 8 Noroeste 24 Noroeste 0 923.2 -1 42
2017-09-15 12:00:00 13.6 9 Norte 23 Norte 0 923.9 -0.3 46
2017-09-15 11:00:00 11.8 10 Norte 22 Norte 0 924.2 0.1 55
2017-09-15 10:00:00 9.6 7 Nordeste 14 Nordeste 0 924.2 0.4 65
2017-09-15 09:00:00 4.2 3 Norte 6 Noroeste 0 924.2 0.2 96
2017-09-15 08:00:00 2.8 3 Norte 8 Noroeste 0 924.1 0 93
2017-09-15 07:00:00 3.5 2 Noroeste 5 Noroeste 0 923.8 -0.9 91
2017-09-15 06:00:00 5.5 3 Noroeste 5 Noroeste 0 924 -0.7 90
2017-09-15 05:00:00 7.5 2 Norte 8 Norte 0 924.1 -1 82
2017-09-15 04:00:00 7.8 3 Norte 13 Nordeste 0 924.7 -1.1 79
2017-09-15 03:00:00 8.4 5 Nordeste 18 Nordeste 0 924.7 -0.9 78
2017-09-15 02:00:00 9.2 5 Este 23 Nordeste 0 925.1 -0.2 74
2017-09-15 01:00:00 9.8 8 Nordeste 27 Nordeste 0 925.8 0.1 70
2017-09-15 00:00:00 10.3 11 Nordeste 35 Nordeste 0 925.6 0 64
2017-09-14 23:00:00 10.5 16 Nordeste 46 Nordeste 0 925.3 0.1 64
2017-09-14 22:00:00 11.1 13 Nordeste 41 Nordeste 0 925.7 0.7 63
2017-09-14 21:00:00 12.3 12 Nordeste 37 Nordeste 0 925.6 0.1 59
2017-09-14 20:00:00 14.1 13 Nordeste 35 Este 0 925.2 -0.9 55
2017-09-14 19:00:00 16.5 12 Este 35 Nordeste 0 925 -1.6 50
2017-09-14 18:00:00 18.4 12 Este 33 Este 0 925.5 -1.8 46
2017-09-14 17:00:00 19.1 13 Nordeste 36 Este 0 926.1 -1.7 47
2017-09-14 16:00:00 20.4 10 Este 22 Este 0 926.6 -1.5 43
2017-09-14 15:00:00 19.3 9 Sudeste 24 Sudeste 0 927.3 -0.9 49
2017-09-14 14:00:00 17.1 6 Nordeste 20 Este 0 927.8 -0.1 55
2017-09-14 13:00:00 15.9 8 Nordeste 19 Nordeste 0 928.1 0.8 60
2017-09-14 12:00:00 16.1 5 Nordeste 22 Sudeste 0 928.2 1.2 68
2017-09-14 11:00:00 14.5 8 Este 21 Nordeste 0 927.9 1.7 84
2017-09-14 10:00:00 13 2 Este 9 Nordeste 0 927.3 1.5 97
2017-09-14 09:00:00 10.6 2 Nordeste 9 Nordeste 0 927 1.3 97
2017-09-14 08:00:00 8.6 6 Nordeste 12 Nordeste 0 926.2 0.7 96
2017-09-14 07:00:00 7.8 0 Calma 6 Norte 0 925.8 0.1 95
2017-09-14 06:00:00 8.3 2 Noroeste 3 Norte 0 925.7 0 94
2017-09-14 05:00:00 9 3 Noroeste 5 Norte 0 925.5 -0.3 93
2017-09-14 04:00:00 9.6 0 Calma 5 Noroeste 0 925.7 -0.1 85
2017-09-14 03:00:00 11 3 Norte 5 Norte 0 925.7 -0.2 81
2017-09-14 02:00:00 12.2 0 Calma 8 Norte 0 925.8 0 82
2017-09-14 01:00:00 13 0 Calma 9 Noroeste 0 925.8 0.4 78
2017-09-14 00:00:00 13.1 0 Calma 4 Sudeste 0 925.9 0.8 75
2017-09-13 23:00:00 13.3 0 Calma 4 Norte 0 925.8 0.7 74
2017-09-13 22:00:00 15.1 0 Calma 2 Norte 0 925.4 0.1 69
2017-09-13 21:00:00 18.1 0 Calma 3 Norte 0 925.1 -0.5 62
2017-09-13 20:00:00 22.3 0 Calma 15 Sudoeste 0 925.1 -1.1 48
2017-09-13 19:00:00 26.2 4 Sudoeste 22 Sudoeste 0 925.3 -1.7 25
2017-09-13 18:00:00 27.6 5 Sudoeste 25 Sudoeste 0 925.6 -2.2 23
2017-09-13 17:00:00 27.6 8 Sudoeste 29 Sudoeste 0 926.2 -2.2 24
2017-09-13 16:00:00 26.8 8 Sudoeste 29 Sudoeste 0 927 -1.8 27
2017-09-13 15:00:00 25.7 10 Sudoeste 30 Sudoeste 0 927.8 -1.2 30
2017-09-13 14:00:00 24.3 9 Sudoeste 27 Sudoeste 0 928.4 -0.6 36
2017-09-13 13:00:00 22.9 8 Sudoeste 27 Sudoeste 0 928.8 0 45
2017-09-13 12:00:00 21.2 8 Sudoeste 18 Sudoeste 0 929 0.5 50
2017-09-13 11:00:00 18 3 Oeste 14 Sudoeste 0 929 0.6 61
2017-09-13 10:00:00 14.2 2 Este 6 Este 0 928.8 0.7 75
2017-09-13 09:00:00 8.8 0 Calma 3 Sudeste 0 928.5 0.7 96
2017-09-13 08:00:00 7.9 2 Noroeste 7 Noroeste 0 928.4 0.7 95
2017-09-13 07:00:00 8 0 Calma 4 Norte 0 928.1 0.2 94
2017-09-13 06:00:00 8.5 0 Calma 5 Noroeste 0 927.8 -0.2 93
2017-09-13 05:00:00 9.3 2 Noroeste 7 Noroeste 0 927.7 -0.4 92
2017-09-13 04:00:00 9.9 0 Calma 6 Norte 0 927.9 0 92
2017-09-13 03:00:00 10.5 2 Noroeste 4 Noroeste 0 928 0.2 91
2017-09-13 02:00:00 11.4 0 Calma 5 Norte 0 928.1 0.9 83
2017-09-13 01:00:00 12.8 0 Calma 4 Sudoeste 0 927.9 0.9 78
2017-09-13 00:00:00 15.1 3 Sudoeste 14 Norte 0 927.8 1.6 67
2017-09-12 23:00:00 17.4 9 Noroeste 18 Norte 0 927.2 1.5 58
2017-09-12 22:00:00 18.2 3 Sur 15 Sur 0 927 1.5 55
2017-09-12 21:00:00 19.2 3 Sur 14 Oeste 0 926.2 0.9 51
2017-09-12 20:00:00 20.9 3 Sudoeste 17 Sudoeste 0 925.7 0.5 43
2017-09-12 19:00:00 23.1 3 Sudoeste 17 Sur 0 925.5 0.1 36
2017-09-12 18:00:00 24.2 10 Sudoeste 25 Sur 0 925.3 -0.3 34
2017-09-12 17:00:00 24.2 4 Oeste 16 Sur 0 925.2 -0.3 32
2017-09-12 16:00:00 23.4 5 Sudoeste 23 Norte 0 925.4 -0.3 34
2017-09-12 15:00:00 23 5 Sur 22 Sudoeste 0 925.6 0 39
2017-09-12 14:00:00 21.3 5 Oeste 20 Norte 0 925.5 0.1 41
2017-09-12 13:00:00 21.2 5 Sudoeste 25 Sudoeste 0 925.7 0.8 44
2017-09-12 12:00:00 19.6 5 Oeste 19 Sudoeste 0 925.6 0.7 43
2017-09-12 11:00:00 17.9 4 Sudoeste 13 Sudoeste 0 925.4 1.2 49
2017-09-12 10:00:00 14.4 3 Oeste 8 Noroeste 0 924.9 1.3 65
2017-09-12 09:00:00 11.1 0 Calma 7 Sudoeste 0 924.9 1.4 92
2017-09-12 08:00:00 10.6 2 Norte 6 Sur 0 924.2 0.6 94
2017-09-12 07:00:00 10.2 2 Noroeste 5 Oeste 0 923.6 -0.1 94
2017-09-12 06:00:00 9.9 4 Norte 7 Noroeste 0 923.5 -0.3 94
2017-09-12 05:00:00 9.4 2 Sur 7 Noroeste 0 923.6 0.3 93
2017-09-12 04:00:00 9.8 0 Calma 9 Noroeste 0 923.7 0.5 92
2017-09-12 03:00:00 10.4 4 Noroeste 7 Noroeste 0 923.8 1 90
2017-09-12 02:00:00 11.1 3 Nordeste 13 Nordeste 0 923.3 1.1 83
2017-09-12 01:00:00 11.9 5 Nordeste 11 Este 0 923.2 1.6 81
2017-09-12 00:00:00 13.1 5 Este 19 Sudeste 0 922.8 1.9 75
2017-09-11 23:00:00 14.9 5 Nordeste 18 Norte 0 922.2 2 66
2017-09-11 22:00:00 18.2 4 Oeste 18 Noroeste 0 921.6 1.5 44
2017-09-11 21:00:00 19 3 Sudeste 23 Oeste 0 920.9 1.4 41
2017-09-11 20:00:00 21.7 4 Sudeste 21 Oeste 0 920.2 0.3 33
2017-09-11 19:00:00 24 3 Sudeste 28 Sudoeste 0 920.1 0.1 27
2017-09-11 18:00:00 25.8 5 Sudoeste 22 Sudoeste 0 919.5 -1 25
2017-09-11 17:00:00 25.9 6 Oeste 31 Oeste 0 919.9 -0.7 23
2017-09-11 16:00:00 25.5 5 Sudoeste 34 Sur 0 920 -1.1 25
2017-09-11 15:00:00 25.5 4 Sudoeste 27 Sur 0 920.5 -0.8 28
2017-09-11 14:00:00 24.2 9 Sudoeste 27 Sudoeste 0 920.6 -0.9 32
2017-09-11 13:00:00 23 7 Sudoeste 25 Sudoeste 0 921.1 -0.4 41
2017-09-11 12:00:00 22.3 5 Sudoeste 22 Sur 0 921.3 0 45
2017-09-11 11:00:00 19.8 5 Sudoeste -- -- -- 921.5 0.4 61
2017-09-11 10:00:00 17.1 5 Sur 17 Sudoeste 0 921.5 0.4 72
2017-09-11 09:00:00 14.3 4 Sudoeste 13 Sudoeste 0 921.3 0.1 87
2017-09-11 08:00:00 12.5 2 Sudoeste 10 Sudoeste 0 921.1 0 92
2017-09-11 07:00:00 12.8 0 Calma 10 Oeste 0 921.1 -0.1 90
2017-09-11 06:00:00 13.5 0 Calma 19 Sudoeste 0 921.2 -0.3 84
2017-09-11 05:00:00 14.9 4 Este 19 Oeste 0 921.1 -0.7 80
2017-09-11 04:00:00 14.8 4 Nordeste 14 Nordeste 0 921.2 -0.8 80
2017-09-11 03:00:00 14.5 3 Sudeste 18 Noroeste 0 921.5 -0.5 80
2017-09-11 02:00:00 14 3 Sudeste 12 Noroeste 0 921.8 -0.1 80
2017-09-11 01:00:00 14.1 2 Norte 9 Noroeste 0 922 0.4 78
2017-09-11 00:00:00 14.7 0 Calma 11 Oeste 0 922 0.7 72
2017-09-10 23:00:00 16 3 Sudeste 8 Sudeste 0 921.9 0.7 65
2017-09-10 22:00:00 16.9 2 Norte 10 Noroeste 0 921.6 0.8 66
2017-09-10 21:00:00 19.1 6 Noroeste 13 Noroeste 0 921.3 0.4 52
2017-09-10 20:00:00 21.5 3 Sudeste 24 Norte 0 921.2 0 39
2017-09-10 19:00:00 22.6 5 Nordeste 23 Norte 0 920.8 -0.9 30
2017-09-10 18:00:00 23.2 5 Oeste 20 Sudoeste 0 920.9 -1.3 26
2017-09-10 17:00:00 22.1 6 Noroeste 22 Noroeste 0 921.2 -1.3 27
2017-09-10 16:00:00 22 5 Oeste 21 Sudoeste 0 921.7 -1.3 25
2017-09-10 15:00:00 20.9 8 Sudoeste 23 Norte 0 922.2 -0.5 27
2017-09-10 14:00:00 19.4 6 Noroeste 22 Sudoeste 0 922.5 0 35
2017-09-10 13:00:00 17.7 5 Oeste 21 Noroeste 0 923 0.9 38
2017-09-10 12:00:00 16.3 8 Noroeste 26 Noroeste 0 922.7 0.8 40
2017-09-10 11:00:00 15.1 9 Norte 28 Noroeste 0 922.5 0.9 47
2017-09-10 10:00:00 13 3 Oeste 8 Norte 0 922.1 1.2 58
2017-09-10 09:00:00 7.6 2 Nordeste 4 Este 0 921.9 1.3 86
2017-09-10 08:00:00 5.7 0 Calma 6 Sudoeste 0 921.6 1.2 85
2017-09-10 07:00:00 6.8 0 Calma 12 Noroeste 0 920.9 0.6 79
2017-09-10 06:00:00 9.2 7 Noroeste 17 Norte 0 920.6 0.6 67
2017-09-10 05:00:00 10.6 5 Noroeste 12 Este 0 920.4 0.4 64
2017-09-10 04:00:00 9.7 0 Calma 10 Sudoeste 0 920.3 0.7 75
2017-09-10 03:00:00 8.2 0 Calma 6 Este 0 920 0.4 76
2017-09-10 02:00:00 9.3 0 Calma 14 Oeste 0 920 0.8 67
2017-09-10 01:00:00 10.5 3 Norte 19 Noroeste 0 919.6 0.7 62
2017-09-10 00:00:00 10.6 6 Noroeste 22 Noroeste 0 919.6 1.6 63
2017-09-09 23:00:00 12.3 6 Norte 16 Norte 0 919.2 1.6 57
2017-09-09 22:00:00 13.2 8 Noroeste 28 Noroeste 0 918.9 1.8 53
2017-09-09 21:00:00 13 13 Noroeste 28 Noroeste 0 918 1.5 54
2017-09-09 20:00:00 14.4 15 Noroeste 50 Noroeste 0 917.6 1.3 47
2017-09-09 19:00:00 16.4 20 Noroeste 42 Norte 0 917.1 0.8 40
2017-09-09 18:00:00 17.5 19 Norte 48 Norte 0 916.5 0.1 40
2017-09-09 17:00:00 18.9 16 Norte 43 Noroeste 0 916.3 -0.4 31
2017-09-09 16:00:00 19.7 13 Noroeste 34 Noroeste 0 916.3 -1 27
2017-09-09 15:00:00 20.2 13 Norte 34 Noroeste 0 916.4 -1 31
2017-09-09 14:00:00 19.2 15 Noroeste 35 Norte 0 916.7 -0.7 33
2017-09-09 13:00:00 18.6 15 Norte 30 Noroeste 0 917.3 0.3 31
2017-09-09 12:00:00 17.8 13 Noroeste 28 Noroeste 0 917.4 0.3 38
2017-09-09 11:00:00 15.9 13 Norte 33 Norte 0 917.4 0.5 54
2017-09-09 10:00:00 14.8 11 Noroeste 22 Norte 0 917 0.1 62
2017-09-09 09:00:00 14 3 Noroeste 13 Noroeste 0 917.1 0.5 76
2017-09-09 08:00:00 12.5 2 Noroeste 6 Sudeste 0 916.9 0.1 84
2017-09-09 07:00:00 12.9 3 Este 9 Este 0 916.9 0.4 81
2017-09-09 06:00:00 13.1 2 Sudeste 8 Este 0 916.6 -0.1 80
2017-09-09 05:00:00 13.8 2 Nordeste 16 Nordeste 0 916.8 -0.6 75
2017-09-09 04:00:00 16.2 3 Sudeste 18 Noroeste 0 916.5 -1 61
2017-09-09 03:00:00 16.2 3 Oeste 15 Noroeste 0 916.7 -0.7 62
2017-09-09 02:00:00 15.1 3 Este 8 Sur 0 917.4 -0.1 64
2017-09-09 01:00:00 15.6 2 Este 9 Nordeste 0 917.5 -0.2 59
2017-09-09 00:00:00 15.5 0 Calma 7 Sudeste 0 917.4 -0.2 62
2017-09-08 23:00:00 16.7 3 Nordeste 12 Oeste 0 917.5 -0.1 47
2017-09-08 22:00:00 15.2 0 Calma 8 Noroeste 0 917.7 -0.5 63
2017-09-08 21:00:00 17.9 2 Norte 14 Sudoeste 0 917.6 -0.8 54
2017-09-08 20:00:00 23.5 4 Sudoeste 17 Sudoeste 0 917.6 -1.7 26
2017-09-08 19:00:00 25.8 5 Sudoeste 25 Sudoeste 0 918.2 -1.6 21
2017-09-08 18:00:00 27.2 9 Sudoeste 27 Sudoeste 0 918.4 -2.1 16
2017-09-08 17:00:00 27.5 4 Sudoeste 31 Sudoeste 0 919.3 -2.2 16
2017-09-08 16:00:00 27 6 Sudoeste 28 Oeste 0 919.8 -2.6 18
2017-09-08 15:00:00 26 9 Sudoeste 23 Sudoeste 0 920.5 -2.4 18
2017-09-08 14:00:00 23.9 5 Sudoeste 20 Sudoeste 0 921.5 -1.8 29
2017-09-08 13:00:00 21.8 5 Sudoeste 14 Sur 0 922.4 -0.8 39
2017-09-08 12:00:00 18.9 4 Este 8 Sudeste 0 922.9 -0.3 46
2017-09-08 11:00:00 15.5 3 Nordeste 12 Nordeste 0 923.3 0 66
2017-09-08 10:00:00 10.6 2 Nordeste 6 Nordeste 0 923.2 -0.3 97
2017-09-08 09:00:00 9.2 2 Norte 8 Nordeste 0 923.2 -0.6 97
2017-09-08 08:00:00 9.1 5 Norte 11 Norte 0 923.3 -0.9 97
2017-09-08 07:00:00 8.8 5 Norte 9 Norte 0 923.5 -1.1 96
2017-09-08 06:00:00 8.9 4 Norte 11 Nordeste 0 923.8 -1.3 94
2017-09-08 05:00:00 9.4 6 Norte 11 Norte 0 924.2 -1.4 93
2017-09-08 04:00:00 9.5 5 Norte 10 Norte 0 924.6 -1.1 92
2017-09-08 03:00:00 10.4 4 Norte 12 Nordeste 0 925.1 -0.8 90
2017-09-08 02:00:00 11.1 6 Nordeste 13 Nordeste 0 925.6 -0.3 84
2017-09-08 01:00:00 12.2 5 Nordeste 19 Nordeste 0 925.7 -0.1 78
2017-09-08 00:00:00 13.4 5 Nordeste 19 Nordeste 0 925.9 0.7 68
2017-09-07 23:00:00 15.1 7 Nordeste 20 Nordeste 0 925.9 1.1 57
2017-09-07 22:00:00 16.8 7 Nordeste 17 Nordeste 0 925.8 1 49
2017-09-07 21:00:00 18.7 4 Este 23 Nordeste 0 925.2 0.2 40
2017-09-07 20:00:00 19.9 0 Calma 6 Noroeste 0 924.8 -0.7 54
2017-09-07 19:00:00 23.2 0 Calma 10 Sudeste 0 924.8 -1.3 37
2017-09-07 18:00:00 26.3 5 Sur 15 Sur 0 925 -1.8 22
2017-09-07 17:00:00 25.9 5 Sur 16 Sur 0 925.5 -2 22
2017-09-07 16:00:00 24.6 5 Noroeste 12 Sudoeste 0 926.1 -2 27
2017-09-07 15:00:00 23.6 4 Noroeste 12 Norte 0 926.8 -2 32
2017-09-07 14:00:00 21.6 3 Nordeste 13 Nordeste 0 927.5 -1.3 36
2017-09-07 13:00:00 19.6 4 Norte 17 Nordeste 0 928.1 -0.6 45
2017-09-07 12:00:00 16.4 7 Nordeste 15 Nordeste 0 928.8 0.1 53
2017-09-07 11:00:00 13.9 6 Nordeste 15 Nordeste 0 928.8 0.3 67
2017-09-07 10:00:00 11.6 6 Nordeste 13 Nordeste 0 928.7 0.3 76
2017-09-07 09:00:00 8.5 0 Calma 17 Nordeste 0 928.7 0.1 90
2017-09-07 08:00:00 7.5 8 Norte 15 Norte 0 928.5 -0.5 91
2017-09-07 07:00:00 7.3 4 Norte 12 Norte 0 928.4 -1.1 91
2017-09-07 06:00:00 7.6 4 Norte 10 Norte 0 928.6 -1 90
2017-09-07 05:00:00 8.2 5 Norte 12 Nordeste 0 929 -0.9 90
2017-09-07 04:00:00 8.4 4 Norte 15 Nordeste 0 929.5 -0.9 84
2017-09-07 03:00:00 9.6 3 Nordeste 19 Nordeste 0 929.6 -0.9 81
2017-09-07 02:00:00 10.4 6 Nordeste 22 Nordeste 0 929.9 -0.5 78
2017-09-07 01:00:00 10.8 8 Nordeste 26 Este 0 930.4 0.3 77
2017-09-07 00:00:00 11.4 7 Nordeste 22 Nordeste 0 930.5 1 74
2017-09-06 23:00:00 12.4 5 Este 25 Nordeste 0 930.4 1.2 71
2017-09-06 22:00:00 13.9 9 Nordeste 29 Nordeste 0 930.1 1.3 68
2017-09-06 21:00:00 15.8 10 Nordeste 32 Este 0 929.5 0.6 60
2017-09-06 20:00:00 18.5 10 Este 35 Nordeste 0 929.2 0 51
2017-09-06 19:00:00 20.9 14 Nordeste 36 Nordeste 0 928.8 -0.8 38
2017-09-06 18:00:00 22.8 12 Nordeste 39 Nordeste 0 928.9 -1.3 38
2017-09-06 17:00:00 23.5 14 Nordeste 37 Nordeste 0 929.2 -1.5 37
2017-09-06 16:00:00 23.3 13 Nordeste 37 Nordeste 0 929.6 -1.5 43
2017-09-06 15:00:00 22.9 13 Nordeste 36 Nordeste 0 930.2 -1.1 46
2017-09-06 14:00:00 22.3 12 Nordeste 36 Este 0 930.7 -0.8 47
2017-09-06 13:00:00 21.6 11 Nordeste 33 Nordeste 0 931.1 -0.3 51
2017-09-06 12:00:00 20.4 13 Nordeste 37 Nordeste 0 931.3 -0.1 56
2017-09-06 11:00:00 18.9 12 Nordeste 34 Nordeste 0 931.5 0.4 63
2017-09-06 10:00:00 17.2 11 Nordeste 32 Este 0 931.4 0.5 71
2017-09-06 09:00:00 14.6 6 Nordeste 18 Nordeste 0 931.4 1 89
2017-09-06 08:00:00 12.6 3 Nordeste 11 Nordeste 0 931.1 0.5 92
2017-09-06 07:00:00 12.4 3 Nordeste 17 Nordeste 0 930.9 -0.1 90
2017-09-06 06:00:00 12.8 4 Nordeste 14 Nordeste 0 930.4 -0.8 83
2017-09-06 05:00:00 13 4 Nordeste 15 Nordeste 0 930.6 -0.5 80
2017-09-06 04:00:00 13.8 6 Nordeste 17 Nordeste 0 931 -0.1 79
2017-09-06 03:00:00 14 5 Nordeste 14 Nordeste 0 931.2 0.2 78
2017-09-06 02:00:00 14.5 3 Nordeste 14 Nordeste 0 931.1 0.6 74
2017-09-06 01:00:00 15.2 5 Norte 22 Nordeste 0 931.1 1.3 71
2017-09-06 00:00:00 15.9 8 Nordeste 23 Nordeste 0 931 2.3 70
2017-09-05 23:00:00 16.8 5 Nordeste 18 Nordeste 0 930.5 2.3 70
2017-09-05 22:00:00 18.4 9 Nordeste 24 Este 0 929.8 2.2 62
2017-09-05 21:00:00 20.9 8 Nordeste 32 Este 0 928.7 1.3 58
2017-09-05 20:00:00 24 11 Nordeste 31 Norte 0 928.2 0.8 51
2017-09-05 19:00:00 28.3 4 Noroeste 24 Sur 0 927.6 0.2 29
2017-09-05 18:00:00 30.2 4 Sur 13 Noroeste 0 927.4 -0.6 25
2017-09-05 17:00:00 29.9 5 Sudoeste 20 Sur 0 927.4 -0.7 23
2017-09-05 16:00:00 29.9 8 Sudoeste 21 Sur 0 927.4 -1.2 28
2017-09-05 15:00:00 29.2 7 Sudoeste 28 Sudoeste 0 928 -0.6 30
2017-09-05 14:00:00 28.3 4 Sudoeste 21 Sudoeste 0 928.1 -0.3 33
2017-09-05 13:00:00 26.4 4 Sudoeste 17 Sudoeste 0 928.6 0.3 38
2017-09-05 12:00:00 25 6 Sur 13 Sudoeste 0 928.6 0.6 43
2017-09-05 11:00:00 21.9 3 Este 13 Este 0 928.4 0.7 53
2017-09-05 10:00:00 18.8 4 Este 14 Nordeste 0 928.3 0.8 67
2017-09-05 09:00:00 14.6 5 Nordeste 13 Nordeste 0 928 0.6 88
2017-09-05 08:00:00 12.5 3 Nordeste 8 Nordeste 0 927.7 0.5 95
2017-09-05 07:00:00 12.1 0 Calma 5 Norte 0 927.5 0.1 92
2017-09-05 06:00:00 13.3 4 Nordeste 9 Nordeste 0 927.4 0 92
2017-09-05 05:00:00 14.1 3 Norte 12 Nordeste 0 927.2 0 91
2017-09-05 04:00:00 14.3 4 Nordeste 9 Este 0 927.4 0.8 91
2017-09-05 03:00:00 14.6 3 Norte 12 Norte 0 927.4 0.8 84
2017-09-05 02:00:00 15.9 5 Norte 15 Nordeste 0 927.2 0.9 81
2017-09-05 01:00:00 16.7 6 Nordeste 15 Norte 0 926.6 0.8 78
2017-09-05 00:00:00 17.6 7 Nordeste 16 Nordeste 0 926.6 1.4 74
2017-09-04 23:00:00 18.4 6 Nordeste 17 Nordeste 0 926.3 1.5 69
2017-09-04 22:00:00 16.7 0 Calma 3 Noroeste 0 925.8 1.3 75
2017-09-04 21:00:00 19.3 0 Calma -- -- 0 925.2 1 67
2017-09-04 20:00:00 22.1 0 Calma 12 Sudoeste 0 924.8 0.6 57
2017-09-04 19:00:00 25.9 5 Sur 13 Este 0 924.5 0.1 34
2017-09-04 18:00:00 27.2 4 Sudoeste 22 Sudoeste 0 924.2 -0.2 30
2017-09-04 17:00:00 26.5 5 Nordeste 14 Norte 0 924.2 -0.3 33
2017-09-04 16:00:00 25.6 6 Norte 13 Nordeste 0 924.4 -0.2 36
2017-09-04 15:00:00 24.3 3 Oeste 13 Norte 0 924.4 0 42
2017-09-04 14:00:00 23.7 4 Nordeste 14 Sur 0 924.5 0.4 46
2017-09-04 13:00:00 23.4 5 Sudeste 12 Sudeste 0 924.6 1 49
2017-09-04 12:00:00 22.3 5 Sur 14 Este 0 924.4 1.3 52
2017-09-04 11:00:00 20.2 5 Este 15 Sudeste 0 924.1 1.5 62
2017-09-04 10:00:00 17.4 4 Nordeste 13 Nordeste 0 923.6 1.7 74
2017-09-04 09:00:00 13.1 0 Calma 4 Noroeste 0 923.1 1.6 95
2017-09-04 08:00:00 11.6 3 Oeste 5 Noroeste 0 922.6 1.1 93
2017-09-04 07:00:00 12.9 4 Norte 12 Noroeste 0 921.9 0.7 93
2017-09-04 06:00:00 12.7 4 Noroeste 8 Norte 0 921.5 0.4 92
2017-09-04 05:00:00 14.2 3 Noroeste 16 Noroeste 0 921.5 0.6 85
2017-09-04 04:00:00 15.7 5 Norte 19 Sudeste 0 921.2 0.4 80
2017-09-04 03:00:00 16.6 7 Noroeste 19 Norte 0 921.1 0.3 75
2017-09-04 02:00:00 16.6 2 Sudoeste 13 Oeste 0 920.9 0.1 73
2017-09-04 01:00:00 17.3 4 Sudeste 12 Sudoeste 0 920.8 0.2 63
2017-09-04 00:00:00 17.1 0 Calma 6 Noroeste 0 920.8 1.2 66
2017-09-03 23:00:00 19.9 2 Norte 24 Norte 0 920.8 1.4 56
2017-09-03 22:00:00 19.8 0 Calma 16 Noroeste 0 920.6 0.8 59
2017-09-03 21:00:00 20.8 5 Norte 23 Noroeste 0 919.6 -0.6 51
2017-09-03 20:00:00 23.4 2 Norte 15 Sur 0 919.4 -1.5 50
2017-09-03 19:00:00 26.8 4 Sudoeste 20 Sudoeste 0 919.8 -1.5 30
2017-09-03 18:00:00 27.3 7 Sudoeste 27 Sudoeste 0 920.2 -1.8 31
2017-09-03 17:00:00 26.1 5 Sudoeste 26 Sudoeste 0 920.9 -1.6 32
2017-09-03 16:00:00 26.8 9 Sudoeste 29 Sudoeste 0 921.3 -1.8 28
2017-09-03 15:00:00 27.4 12 Sudoeste 26 Sur 0 922 -1.3 25
2017-09-03 14:00:00 25.4 6 Sudoeste 24 Sur 0 922.5 -1.2 25
2017-09-03 13:00:00 24.7 6 Oeste 22 Sur 0 923.1 -0.9 28
2017-09-03 12:00:00 23.8 5 Sudoeste 19 Sudoeste 0 923.3 -0.7 29
2017-09-03 11:00:00 20.6 3 Sudoeste 12 Oeste 0 923.7 -0.5 43
2017-09-03 10:00:00 16 3 Sudoeste 6 Oeste 0 924 0 69
2017-09-03 09:00:00 12.2 0 Calma 4 Noroeste 0 924 -0.4 88
2017-09-03 08:00:00 10.5 2 Norte 6 Noroeste 0 924.2 -0.8 84
2017-09-03 07:00:00 12.1 2 Norte 5 Noroeste 0 924 -1.5 82
2017-09-03 06:00:00 11.9 0 Calma 4 Norte 0 924.4 -1.5 83
2017-09-03 05:00:00 11.6 0 Calma 5 Noroeste 0 925 -1.1 86
2017-09-03 04:00:00 11.2 0 Calma 4 Norte 0 925.5 -1 88
2017-09-03 03:00:00 10.8 0 Calma -- -- 0 925.9 -1 89
2017-09-03 02:00:00 10.7 0 Calma 4 Noroeste 0 926.1 -0.8 85
2017-09-03 01:00:00 11.1 0 Calma 4 Noroeste 0 926.5 -0.5 79
2017-09-03 00:00:00 11.9 3 Norte 5 Noroeste 0 926.9 0.1 75
2017-09-02 23:00:00 12.1 0 Calma 3 Noroeste 0 926.9 0.2 75
2017-09-02 22:00:00 13.3 0 Calma 3 Norte 0 927 0.1 72
2017-09-02 21:00:00 15.6 0 Calma 8 Sudoeste 0 926.8 -0.5 64
2017-09-02 20:00:00 19.1 2 Oeste 13 Oeste 0 926.7 -0.9 54
2017-09-02 19:00:00 22.6 3 Nordeste 8 Norte 0 926.9 -1.5 29
2017-09-02 18:00:00 23.6 2 Este 10 Sudeste 0 927.3 -1.9 25
2017-09-02 17:00:00 23.7 3 Sudoeste 15 Sur 0 927.6 -2.1 24
2017-09-02 16:00:00 22.8 4 Oeste 13 Sudeste 0 928.4 -2.1 26
2017-09-02 15:00:00 21.4 4 Nordeste 12 Este 0 929.2 -1.7 34
2017-09-02 14:00:00 20 4 Sur 14 Este 0 929.7 -1.6 36
2017-09-02 13:00:00 17.9 4 Nordeste 12 Este 0 930.5 -0.6 42
2017-09-02 12:00:00 16.2 5 Nordeste 16 Norte 0 930.9 -0.2 55
2017-09-02 11:00:00 14.4 7 Nordeste 19 Nordeste 0 931.3 0.3 62
2017-09-02 10:00:00 11.8 5 Nordeste 14 Nordeste 0 931.1 0.5 79
2017-09-02 09:00:00 7.7 3 Norte 13 Este 0 931.1 0.6 97
2017-09-02 08:00:00 4.7 0 Calma 4 Noroeste 0 931 0.5 96
2017-09-02 07:00:00 5 0 Calma 6 Norte 0 930.6 -0.1 95
2017-09-02 06:00:00 5.7 2 Norte 5 Nordeste 0 930.5 -0.3 95
2017-09-02 05:00:00 5.8 0 Calma 13 Este 0 930.5 -0.5 94
2017-09-02 04:00:00 6 0 Calma 5 Norte 0 930.7 -0.1 93
2017-09-02 03:00:00 7 0 Calma 5 Norte 0 930.8 0.2 93
2017-09-02 02:00:00 7.9 0 Calma 5 Este 0 931 0.7 90
2017-09-02 01:00:00 9.4 0 Calma 8 Este 0 930.8 1.2 82
2017-09-02 00:00:00 11.1 4 Este 11 Este 0 930.6 1.8 75
2017-09-01 23:00:00 12.3 4 Norte 19 Nordeste 0 930.3 2.3 70
2017-09-01 22:00:00 13.4 5 Nordeste 29 Nordeste 0 929.6 2.1 66
2017-09-01 21:00:00 15.2 8 Nordeste 30 Norte 0 928.8 1.9 58
2017-09-01 20:00:00 17.1 9 Nordeste 32 Norte 0 928 0.8 53
2017-09-01 19:00:00 19.2 13 Nordeste 31 Nordeste 0 927.5 0.1 44
2017-09-01 18:00:00 21.6 6 Noroeste 20 Sudeste 0 926.9 -1.1 28
2017-09-01 17:00:00 21.8 3 Este 17 Este 0 927.2 -1.1 31
2017-09-01 16:00:00 21.5 8 Norte 22 Noroeste 0 927.4 -1.4 31
2017-09-01 15:00:00 20.6 5 Nordeste 21 Noroeste 0 928 -0.9 35
2017-09-01 14:00:00 19.3 7 Norte 18 Noroeste 0 928.3 -0.5 40
2017-09-01 13:00:00 18.3 8 Nordeste 24 Nordeste 0 928.8 0.4 46
2017-09-01 12:00:00 17 10 Nordeste 21 Norte 0 928.9 0.8 52
2017-09-01 11:00:00 15.9 8 Nordeste 22 Nordeste 0 928.8 0.9 60
2017-09-01 10:00:00 12.8 8 Nordeste 20 Nordeste 0 928.4 0.9 76
2017-09-01 09:00:00 10.5 4 Norte 9 Nordeste 0 928.1 0.6 94
2017-09-01 08:00:00 9.2 3 Norte 10 Norte 0 927.9 0.3 94
2017-09-01 07:00:00 9.6 5 Norte 19 Nordeste 0 927.5 -0.2 92
2017-09-01 06:00:00 10.2 8 Nordeste 23 Nordeste 0 927.5 -0.4 90
2017-09-01 05:00:00 10.4 7 Nordeste 21 Norte 0 927.6 -0.5 90
2017-09-01 04:00:00 10.6 6 Nordeste 20 Nordeste 0 927.7 -0.3 88
2017-09-01 03:00:00 10.9 6 Nordeste 23 Nordeste 0 927.9 0.1 84
2017-09-01 02:00:00 11.4 6 Nordeste 22 Norte 0 928.1 0.5 83
2017-09-01 01:00:00 11.8 9 Nordeste 26 Este 0 928 0.9 82
2017-09-01 00:00:00 12.1 10 Nordeste 27 Nordeste 0 927.8 1.5 81
2017-08-31 23:00:00 12.7 12 Nordeste 33 Nordeste 0 927.6 2 78
2017-08-31 22:00:00 13.7 13 Nordeste 33 Nordeste 0 927.1 1.7 73
2017-08-31 21:00:00 16 12 Nordeste 36 Nordeste 0 926.3 0.9 64
2017-08-31 20:00:00 19.6 5 Este 15 Este 0 925.6 0 40
2017-08-31 19:00:00 21.1 4 Nordeste 18 Nordeste 0 925.4 -0.7 36
2017-08-31 18:00:00 22 4 Nordeste 19 Norte 0 925.4 -1.1 33
2017-08-31 17:00:00 21.5 5 Norte 18 Norte 0 925.6 -1.3 34
2017-08-31 16:00:00 20.8 5 Noroeste 23 Norte 0 926.1 -1.4 37
2017-08-31 15:00:00 19 10 Norte 19 Norte 0 926.5 -1.1 46
2017-08-31 14:00:00 19.5 8 Nordeste 21 Norte 0 926.9 -0.5 49
2017-08-31 13:00:00 18.4 7 Este 25 Este 0 927.5 0.2 53
2017-08-31 12:00:00 17 9 Nordeste 31 Norte 0 927.6 0.6 57
2017-08-31 11:00:00 15.5 11 Nordeste 28 Nordeste 0 927.4 0.9 64
2017-08-31 10:00:00 13.8 9 Nordeste 25 Nordeste 0 927.3 1.1 70
2017-08-31 09:00:00 11.6 8 Nordeste 21 Norte 0 927 1.1 81
2017-08-31 08:00:00 10.2 4 Norte 13 Nordeste 0 926.5 1 90
2017-08-31 07:00:00 10.7 5 Nordeste 17 Este 0 926.2 0.8 89
2017-08-31 06:00:00 11 6 Nordeste 18 Nordeste 0 925.9 0.6 89
2017-08-31 05:00:00 11.8 5 Nordeste 18 Nordeste 0 925.5 0.3 87
2017-08-31 04:00:00 12.3 4 Nordeste 22 Nordeste 0 925.4 0.4 88
2017-08-31 03:00:00 12.5 10 Nordeste 24 Nordeste 0 925.3 0.6 85
2017-08-31 02:00:00 12.7 9 Nordeste 27 Nordeste 0 925.2 0.8 84
2017-08-31 01:00:00 13.2 4 Nordeste 19 Este 0 925 1.3 90
2017-08-31 00:00:00 13.7 7 Nordeste 25 Nordeste 0.4 924.7 2.2 90
2017-08-30 23:00:00 14.3 14 Nordeste 32 Nordeste 0 924.4 2.5 82
2017-08-30 22:00:00 15.2 5 Nordeste 16 Nordeste 0.2 923.7 2.5 91
2017-08-30 21:00:00 15.8 6 Nordeste 27 Norte 1.8 922.5 1.3 85
2017-08-30 20:00:00 17.4 10 Norte 22 Noroeste 0 921.9 1.4 82
2017-08-30 19:00:00 17.5 4 Norte 17 Norte 0 921.2 0.3 84
2017-08-30 18:00:00 16.8 10 Noroeste 28 Noroeste 0.8 921.2 0.1 83
2017-08-30 17:00:00 24.3 8 Sudoeste 32 Sudoeste 0 920.5 -1.1 41
2017-08-30 16:00:00 23.2 10 Sudoeste 26 Sudoeste 0 920.9 -1 46
2017-08-30 15:00:00 24 9 Sudoeste 31 Sudoeste 0 921.1 -1.2 44
2017-08-30 14:00:00 23.7 7 Sudoeste 35 Sudoeste 0 921.6 -0.7 51
2017-08-30 13:00:00 22.8 14 Sudoeste 29 Sudoeste 0 921.9 -0.4 51
2017-08-30 12:00:00 21.3 10 Sudoeste 28 Sudoeste 0 922.3 0.3 56
2017-08-30 11:00:00 20.7 8 Sur 18 Sur 0 922.3 0.3 62
2017-08-30 10:00:00 18.7 5 Sur 12 Sur 0 922.3 0.8 77
2017-08-30 09:00:00 15.1 4 Sudeste 8 Sudeste 0 922 0.6 91
2017-08-30 08:00:00 13.7 0 Calma 8 Nordeste 0 922 0.4 94
2017-08-30 07:00:00 13.9 3 Este 10 Nordeste 0 921.5 -0.4 94
2017-08-30 06:00:00 14.6 6 Nordeste 12 Nordeste 0 921.4 -0.5 94
2017-08-30 05:00:00 13.7 0 Calma 3 Oeste 0 921.6 0.1 94
2017-08-30 04:00:00 14.1 2 Oeste 6 Norte 0 921.9 0.2 93
2017-08-30 03:00:00 15.2 3 Oeste 5 Sudoeste 0 921.9 -0.6 91
2017-08-30 02:00:00 15.7 4 Nordeste 14 Nordeste 0 921.5 -0.6 82
2017-08-30 01:00:00 16.1 6 Norte 22 Norte 0 921.7 0.7 80
2017-08-30 00:00:00 16.6 7 Norte 22 Norte 0.4 922.5 1.6 80
2017-08-29 23:00:00 17.2 3 Nordeste 24 Este 0.2 922.1 2 76
2017-08-29 22:00:00 18.8 14 Sudeste 29 Sudeste 0 921 1 63
2017-08-29 21:00:00 19.6 12 Sudeste 34 Sudeste 0 920.9 1 57
2017-08-29 20:00:00 21.2 0 Calma 9 Sudoeste 0 920.1 0 63
2017-08-29 19:00:00 24.3 3 Sudeste 14 Sudeste 0 920 -0.8 41
2017-08-29 18:00:00 25.9 3 Sudoeste 11 Sur 0 919.9 -1.6 32
2017-08-29 17:00:00 24.2 3 Sudeste 13 Norte 0 920.1 -1.7 41
2017-08-29 16:00:00 23.4 5 Noroeste 17 Nordeste 0 920.8 -1.3 49
2017-08-29 15:00:00 22.1 4 Nordeste 12 Nordeste 0 921.5 -0.8 55
2017-08-29 14:00:00 22.2 4 Sudeste 15 Sur 0 921.8 -0.3 51
2017-08-29 13:00:00 22.5 5 Este 21 Sudeste 0 922.1 0 56
2017-08-29 12:00:00 21.3 8 Sudeste 21 Sudeste 0 922.3 0.2 60
2017-08-29 11:00:00 19.6 8 Sudeste 22 Sudeste 0 922.1 0.3 67
2017-08-29 10:00:00 17.4 7 Este 22 Este 0 922.1 0.8 77
2017-08-29 09:00:00 14.5 7 Nordeste 17 Nordeste 0 922.1 0.7 93
2017-08-29 08:00:00 12.5 7 Nordeste 15 Norte 0 921.8 0.3 96
2017-08-29 07:00:00 11.9 4 Nordeste 11 Nordeste 0 921.3 -0.7 96
2017-08-29 06:00:00 12 2 Este 8 Norte 0 921.4 -0.8 95
2017-08-29 05:00:00 12.9 4 Norte 9 Nordeste 0 921.5 -0.6 95
2017-08-29 04:00:00 13.5 3 Nordeste 9 Norte 0 922 -0.3 94
2017-08-29 03:00:00 14.1 4 Nordeste 10 Nordeste 0 922.2 -0.5 93
2017-08-29 02:00:00 14.4 4 Nordeste 12 Norte 0 922.1 -1 93
2017-08-29 01:00:00 14.9 6 Norte 13 Nordeste 0 922.3 -0.5 92
2017-08-29 00:00:00 15.3 6 Nordeste 18 Norte 0 922.7 -0.2 90
2017-08-28 23:00:00 15.5 5 Norte 14 Norte 0 923.1 0.8 90
2017-08-28 22:00:00 16.1 6 Nordeste 19 Nordeste 0 922.8 -0.2 83
2017-08-28 21:00:00 16.3 7 Nordeste 21 Nordeste 0 922.9 0.4 89
2017-08-28 20:00:00 16.6 6 Este 21 Este 0.2 922.3 -0.2 84
2017-08-28 19:00:00 16.8 7 Este 22 Nordeste 0 923 -0.3 84
2017-08-28 18:00:00 17.1 8 Nordeste 23 Nordeste 0 922.5 0.5 82
2017-08-28 17:00:00 18.3 10 Sudeste 37 Sudeste 0 922.5 0.3 77
2017-08-28 16:00:00 19.9 11 Sur 40 Sudeste 0 923.3 0.3 67
2017-08-28 15:00:00 21.6 8 Este 28 Sudeste 0 922 -1.5 63
2017-08-28 14:00:00 22 8 Este 30 Sudeste 0 922.2 -1 63
2017-08-28 13:00:00 22.5 11 Este 29 Sudeste 0 923 -0.1 62
2017-08-28 12:00:00 21 11 Sudeste 22 Sudeste 0 923.5 0.8 70
2017-08-28 11:00:00 19.9 7 Este 22 Norte 0 923.2 0.7 71
2017-08-28 10:00:00 17 7 Nordeste 15 Este 0 923.1 1.1 85
2017-08-28 09:00:00 15.5 5 Nordeste 14 Norte 0 922.7 1.1 90
2017-08-28 08:00:00 15.2 5 Nordeste 15 Nordeste 0 922.5 0.4 90
2017-08-28 07:00:00 15.6 5 Nordeste 14 Nordeste 0 922 0.2 90
2017-08-28 06:00:00 15.9 7 Nordeste 17 Norte 0 921.6 -1.4 91
2017-08-28 05:00:00 15.4 4 Nordeste 14 Este 0 922.1 -0.5 92
2017-08-28 04:00:00 15.2 5 Nordeste 17 Este 1.2 921.8 -1.5 90
2017-08-28 03:00:00 15.2 9 Sudeste 19 Sudeste 0 923 0.3 90
2017-08-28 02:00:00 15.3 6 Nordeste 31 Sur 1.8 922.6 0.1 89
2017-08-28 01:00:00 17.2 6 Sur 15 Sudoeste 0 923.3 1.5 75
2017-08-28 00:00:00 17.3 4 Este 12 Este 0 922.7 1.9 79
2017-08-27 23:00:00 17.5 4 Sudeste 11 Este 0 922.5 1.7 79
2017-08-27 22:00:00 18.7 5 Este 15 Este 0 921.8 0.6 71
2017-08-27 21:00:00 20.2 5 Este 20 Nordeste 0 920.8 -1 68
2017-08-27 20:00:00 20.2 5 Este 20 Este 0 920.8 -1.6 74
2017-08-27 19:00:00 20.5 6 Nordeste 26 Este 0 921.2 -1.4 70
2017-08-27 18:00:00 20.7 9 Este 30 Sudeste 0 921.8 -2 67
2017-08-27 17:00:00 20.7 13 Este 35 Este 0 922.4 -1.5 67
2017-08-27 16:00:00 20.6 12 Este 30 Este 0 922.6 -1.1 69
2017-08-27 15:00:00 19 12 Este 24 Este 0 923.8 -0.1 81
2017-08-27 14:00:00 17 8 Este 25 Nordeste 0.4 923.9 -0.9 88
2017-08-27 13:00:00 16 7 Nordeste 20 Nordeste 3.2 923.7 0 91
2017-08-27 12:00:00 16.2 6 Nordeste 24 Noroeste 0.6 923.9 -0.4 87
2017-08-27 11:00:00 16 7 Noroeste 29 Noroeste 0.8 924.8 -0.2 87
2017-08-27 10:00:00 15.6 10 Norte 32 Noroeste 2.8 923.7 0.5 89
2017-08-27 09:00:00 16.1 8 Norte 19 Noroeste 0.8 924.3 2.7 81
2017-08-27 08:00:00 16.6 8 Sudoeste 40 Sudoeste 3.8 925 3.2 80
2017-08-27 07:00:00 19.2 25 Sudoeste 57 Sur 0 923.2 1.6 59
2017-08-27 06:00:00 18.9 5 Nordeste 15 Nordeste 0 921.6 -0.2 44
2017-08-27 05:00:00 19.2 4 Nordeste 12 Nordeste 0 921.8 -0.2 42
2017-08-27 04:00:00 18.7 4 Nordeste 12 Nordeste 0 921.6 -0.6 45
2017-08-27 03:00:00 18.8 5 Nordeste 12 Nordeste 0 921.8 -0.4 44
2017-08-27 02:00:00 16.5 2 Nordeste 7 Este 0 922 0.2 58
2017-08-27 01:00:00 16.7 2 Norte 4 Norte 0 922.2 0.9 61
2017-08-27 00:00:00 18 2 Sur 8 Sudeste 0 922.2 1.3 58
2017-08-26 23:00:00 20.5 2 Este 14 Sudeste 0 921.8 1.3 44
2017-08-26 22:00:00 23.6 6 Sur 23 Sur 0 921.3 0.8 31
2017-08-26 21:00:00 25.6 10 Sur 36 Sudoeste 0 920.9 -0.3 26
2017-08-26 20:00:00 27.7 15 Sur 50 Sur 0 920.5 -1.7 23
2017-08-26 19:00:00 28.4 11 Sur 28 Sur 0 920.5 -2.5 21
2017-08-26 18:00:00 28.1 10 Sur 25 Sudeste 0 921.2 -2.3 23
2017-08-26 17:00:00 27.5 3 Este 15 Sudeste 0 922.2 -1.4 25
2017-08-26 16:00:00 26.8 6 Sudoeste 15 Sudoeste 0 923 -0.8 27
2017-08-26 15:00:00 24.5 3 Oeste 23 Sudoeste 0 923.5 0.1 31
2017-08-26 14:00:00 26 9 Sudoeste 33 Sudoeste 0 923.6 0.7 27
2017-08-26 13:00:00 25.1 12 Sudoeste 33 Sudoeste 0 923.8 1.1 27
2017-08-26 12:00:00 24.8 6 Sur 17 Sudoeste 0 923.4 1.1 31
2017-08-26 11:00:00 22 3 Sudeste 10 Sudeste 0 922.9 1.2 35
2017-08-26 10:00:00 18.2 3 Nordeste 7 Nordeste 0 922.7 1.2 55
2017-08-26 09:00:00 12.4 0 Calma 9 Nordeste 0 922.3 0.9 79
2017-08-26 08:00:00 8.6 0 Calma 4 Norte 0 921.7 0.4 90
2017-08-26 07:00:00 9.5 0 Calma 5 Este 0 921.5 -0.3 84
2017-08-26 06:00:00 11 2 Este 10 Nordeste 0 921.4 -0.6 79
2017-08-26 05:00:00 12.8 5 Nordeste 11 Nordeste 0 921.3 -0.7 74
2017-08-26 04:00:00 11.1 3 Nordeste 7 Este 0 921.8 -0.5 84
2017-08-26 03:00:00 12.6 0 Calma 8 Nordeste 0 922 -0.1 72
2017-08-26 02:00:00 15.9 6 Norte 17 Nordeste 0 922 0 56
2017-08-26 01:00:00 15.5 7 Nordeste 20 Nordeste 0 922.3 0.4 35
2017-08-26 00:00:00 12.7 2 Nordeste 9 Este 0 922.1 0.7 53
2017-08-25 23:00:00 13.8 2 Nordeste 5 Norte 0 922 0.7 62
2017-08-25 22:00:00 15.8 3 Norte 4 Norte 0 921.9 0.6 55
2017-08-25 21:00:00 19.5 0 Calma 4 Norte 0 921.4 0 52
2017-08-25 20:00:00 24.1 0 Calma 14 Sudoeste 0 921.3 -0.4 37
2017-08-25 19:00:00 27.5 4 Sudoeste 16 Sudoeste 0 921.3 -0.9 21
2017-08-25 18:00:00 28.4 4 Oeste 19 Sudoeste 0 921.4 -1.2 19
2017-08-25 17:00:00 28.7 7 Sudoeste 28 Sudoeste 0 921.7 -1.2 16
2017-08-25 16:00:00 29.4 12 Sudoeste 29 Sur 0 922.2 -1 15
2017-08-25 15:00:00 28.5 12 Sudoeste 29 Sur 0 922.6 -0.9 19
2017-08-25 14:00:00 27.3 6 Sudoeste 27 Sudoeste 0 922.9 -0.6 23
2017-08-25 13:00:00 25.9 8 Sur 23 Sudoeste 0 923.2 -0.1 32
2017-08-25 12:00:00 23.6 3 Nordeste 13 Sudoeste 0 923.5 0.2 49
2017-08-25 11:00:00 21.1 5 Este 15 Este 0 923.5 0.5 61
2017-08-25 10:00:00 18 6 Este 15 Este 0 923.3 0.5 75
2017-08-25 09:00:00 14 2 Norte 7 Norte 0 923.3 0.5 95
2017-08-25 08:00:00 11.6 3 Norte 8 Nordeste 0 923 0 94
2017-08-25 07:00:00 12.3 2 Nordeste 9 Nordeste 0 922.8 -0.4 92
2017-08-25 06:00:00 13.2 4 Norte 9 Nordeste 0 922.8 -0.6 92
2017-08-25 05:00:00 14.1 3 Norte 15 Nordeste 0 923 -0.8 88
2017-08-25 04:00:00 14.7 6 Nordeste 22 Nordeste 0 923.2 -0.6 85
2017-08-25 03:00:00 15 6 Nordeste 14 Nordeste 0 923.4 -0.4 84
2017-08-25 02:00:00 15.6 5 Nordeste 18 Nordeste 0 923.8 0.4 81
2017-08-25 01:00:00 16.4 8 Nordeste 23 Nordeste 0 923.8 1.2 78
2017-08-25 00:00:00 17.2 8 Nordeste 26 Nordeste 0 923.8 1.8 72
2017-08-24 23:00:00 16.1 4 Nordeste 19 Nordeste 0 923.4 2 53
2017-08-24 22:00:00 18.8 0 Calma 10 Sudoeste 0 922.6 1.1 48
2017-08-24 21:00:00 23.6 4 Sudoeste 25 Sudoeste 0 922 0.4 30
2017-08-24 20:00:00 27.1 10 Sudoeste 28 Sudoeste 0 921.4 -0.2 22
2017-08-24 19:00:00 29.4 13 Sudoeste 29 Sur 0 921.5 -0.3 18
2017-08-24 18:00:00 30.2 16 Sudoeste 41 Sudoeste 0 921.6 -0.4 18
2017-08-24 17:00:00 30.9 16 Sudoeste 40 Sur 0 921.6 -0.7 19
2017-08-24 16:00:00 31.2 17 Sudoeste 40 Sudoeste 0 921.8 -0.9 16
2017-08-24 15:00:00 31.4 10 Sudoeste 28 Sur 0 922 -0.9 18
2017-08-24 14:00:00 29.4 15 Sudoeste 33 Sudoeste 0 922.3 -0.7 26
2017-08-24 13:00:00 27.9 4 Sudoeste 18 Sudeste 0 922.7 -0.2 34
2017-08-24 12:00:00 26.8 8 Sur 17 Sudoeste 0 922.9 0 38
2017-08-24 11:00:00 24.3 6 Sudeste 15 Este 0 923 0.3 50
2017-08-24 10:00:00 21 6 Este 14 Nordeste 0 922.9 0.5 64
2017-08-24 09:00:00 17.4 6 Nordeste 15 Nordeste 0 922.9 0.8 79
2017-08-24 08:00:00 15.7 5 Nordeste 14 Nordeste 0 922.7 0.5 83
2017-08-24 07:00:00 15.8 5 Nordeste 19 Nordeste 0 922.4 0.2 82
2017-08-24 06:00:00 16.3 8 Nordeste 19 Nordeste 0 922.1 -0.2 80
2017-08-24 05:00:00 16.9 8 Nordeste 21 Nordeste 0 922.2 -0.4 78
2017-08-24 04:00:00 17.5 9 Nordeste 26 Nordeste 0 922.2 -0.2 75
2017-08-24 03:00:00 18.5 11 Nordeste 24 Nordeste 0 922.3 -0.1 71
2017-08-24 02:00:00 20.3 9 Nordeste 25 Nordeste 0 922.6 0.3 64
2017-08-24 01:00:00 22.1 9 Nordeste 24 Nordeste 0 922.4 0.4 57
2017-08-24 00:00:00 23 7 Nordeste 22 Este 0 922.4 1 53
2017-08-23 23:00:00 23.8 7 Nordeste 23 Nordeste 0 922.3 1 48
2017-08-23 22:00:00 26 8 Nordeste 31 Nordeste 0 922 0.5 36
2017-08-23 21:00:00 22.7 2 Norte 3 Norte 0 921.4 -0.5 49
2017-08-23 20:00:00 27.7 0 Calma 21 Sudoeste 0 921.3 -1 33
2017-08-23 19:00:00 32.3 3 Oeste 16 Sudoeste 0 921.5 -1.4 16
2017-08-23 18:00:00 32 5 Sudoeste 20 Sudoeste 0 921.9 -1.5 20
2017-08-23 17:00:00 33.4 7 Sudoeste 23 Sudoeste 0 922.3 -1.6 18
2017-08-23 16:00:00 33.1 6 Sur 20 Sudeste 0 922.9 -1.6 22
2017-08-23 15:00:00 30.9 6 Nordeste 18 Nordeste 0 923.4 -1.2 27
2017-08-23 14:00:00 29.9 6 Nordeste 15 Este 0 923.9 -0.6 29
2017-08-23 13:00:00 27.9 8 Este 21 Este 0 924.5 -0.1 31
2017-08-23 12:00:00 24.9 6 Este 24 Nordeste 0 924.6 -0.4 35
2017-08-23 11:00:00 24.2 9 Este 26 Nordeste 0 924.5 0 33
2017-08-23 10:00:00 21.2 5 Nordeste 16 Nordeste 0 924.6 0.1 40
2017-08-23 09:00:00 17.9 4 Noroeste 12 Norte 0 925 0.6 50
2017-08-23 08:00:00 13.3 4 Nordeste 8 Norte 0 924.5 0 70
2017-08-23 07:00:00 14.8 5 Norte 15 Nordeste 0 924.5 -0.1 58
2017-08-23 06:00:00 14.7 5 Norte 11 Norte 0 924.4 -0.6 60
2017-08-23 05:00:00 15.4 5 Nordeste 13 Nordeste 0 924.5 -0.5 56
2017-08-23 04:00:00 14.2 3 Norte 6 Norte 0 924.6 -0.3 73
2017-08-23 03:00:00 15.3 3 Este 9 Nordeste 0 925 0.5 69
2017-08-23 02:00:00 17.2 2 Nordeste 8 Nordeste 0 925 0.8 65
2017-08-23 01:00:00 19.9 3 Norte 27 Nordeste 0 924.9 1.3 54
2017-08-23 00:00:00 21.4 8 Nordeste 27 Nordeste 0 924.5 1.5 49
2017-08-22 23:00:00 22.7 10 Nordeste 29 Nordeste 0 924.2 2 42
2017-08-22 22:00:00 24.3 9 Nordeste 29 Nordeste 0 923.6 1.5 37
2017-08-22 21:00:00 26.7 9 Nordeste 39 Nordeste 0 923 0.7 30
2017-08-22 20:00:00 27.8 3 Norte 14 Sudoeste 0 922.2 -0.5 36
2017-08-22 19:00:00 33.1 2 Noroeste 19 Oeste 0 922.1 -1 20
2017-08-22 18:00:00 33.6 7 Noroeste 21 Noroeste 0 922.3 -1.3 15
2017-08-22 17:00:00 34.4 9 Sudoeste 23 Sudoeste 0 922.7 -1.3 14
2017-08-22 16:00:00 34.5 5 Sudoeste 39 Sudoeste 0 923.1 -1.4 18
2017-08-22 15:00:00 33.8 11 Sudoeste 36 Sudoeste 0 923.6 -1.1 17
2017-08-22 14:00:00 33 12 Sudoeste 30 Sudoeste 0 924 -0.8 22
2017-08-22 13:00:00 32.4 8 Sudoeste 29 Sudoeste 0 924.5 -0.3 25
2017-08-22 12:00:00 30.7 8 Sudoeste 23 Sudoeste 0 924.7 0.2 26
2017-08-22 11:00:00 27.1 3 Oeste 9 Sudoeste 0 924.8 0.7 35
2017-08-22 10:00:00 22.1 0 Calma 4 Norte 0 924.8 1 51
2017-08-22 09:00:00 16.1 0 Calma 4 Sudoeste 0 924.5 1 67
2017-08-22 08:00:00 14.6 0 Calma 8 Norte 0 924.1 0.4 64
2017-08-22 07:00:00 15.3 2 Este 7 Nordeste 0 923.8 0.4 62
2017-08-22 06:00:00 14.8 0 Calma 9 Norte 0 923.5 0.5 69
2017-08-22 05:00:00 15.6 0 Calma 5 Oeste 0 923.7 0.8 68
2017-08-22 04:00:00 16.6 0 Calma 9 Norte 0 923.4 0.8 61
2017-08-22 03:00:00 17.6 2 Nordeste 7 Norte 0 923 0.1 56
2017-08-22 02:00:00 21.2 4 Norte 32 Sur 0 922.9 -0.2 41
2017-08-22 01:00:00 23.3 6 Nordeste 16 Nordeste 0 922.6 0 31
2017-08-22 00:00:00 22.5 5 Nordeste 14 Nordeste 0 922.9 0.6 33